sensor_id;sensor_type;location;lat;lon;timestamp;P1;durP1;ratioP1;P2;durP2;ratioP2
52102;SDS011;38101;53.126;6.878;2022-09-13T00:00:27;15.77;;;13.43;;
52102;SDS011;38101;53.126;6.878;2022-09-13T00:02:53;15.32;;;13.13;;
52102;SDS011;38101;53.126;6.878;2022-09-13T00:05:18;14.80;;;13.02;;
52102;SDS011;38101;53.126;6.878;2022-09-13T00:07:44;15.45;;;13.43;;
52102;SDS011;38101;53.126;6.878;2022-09-13T00:10:10;17.73;;;13.70;;
52102;SDS011;38101;53.126;6.878;2022-09-13T00:12:36;15.80;;;13.13;;
52102;SDS011;38101;53.126;6.878;2022-09-13T00:15:02;15.25;;;12.98;;
52102;SDS011;38101;53.126;6.878;2022-09-13T00:17:28;15.55;;;12.70;;
52102;SDS011;38101;53.126;6.878;2022-09-13T00:19:54;16.77;;;12.80;;
52102;SDS011;38101;53.126;6.878;2022-09-13T00:22:20;16.00;;;12.60;;
52102;SDS011;38101;53.126;6.878;2022-09-13T00:24:45;16.38;;;12.98;;
52102;SDS011;38101;53.126;6.878;2022-09-13T00:27:11;16.70;;;13.18;;
52102;SDS011;38101;53.126;6.878;2022-09-13T00:29:37;15.43;;;13.73;;
52102;SDS011;38101;53.126;6.878;2022-09-13T00:32:03;15.32;;;13.02;;
52102;SDS011;38101;53.126;6.878;2022-09-13T00:34:29;15.40;;;12.95;;
52102;SDS011;38101;53.126;6.878;2022-09-13T00:36:55;16.73;;;13.35;;
52102;SDS011;38101;53.126;6.878;2022-09-13T00:39:21;14.43;;;12.15;;
52102;SDS011;38101;53.126;6.878;2022-09-13T00:41:47;15.50;;;12.95;;
52102;SDS011;38101;53.126;6.878;2022-09-13T00:47:18;16.50;;;13.75;;
52102;SDS011;38101;53.126;6.878;2022-09-13T00:52:47;15.30;;;12.77;;
52102;SDS011;38101;53.126;6.878;2022-09-13T00:58:08;16.88;;;14.05;;
52102;SDS011;38101;53.126;6.878;2022-09-13T01:00:40;17.20;;;14.23;;
52102;SDS011;38101;53.126;6.878;2022-09-13T01:03:07;17.40;;;14.30;;
52102;SDS011;38101;53.126;6.878;2022-09-13T01:05:45;18.55;;;15.18;;
52102;SDS011;38101;53.126;6.878;2022-09-13T01:08:21;16.48;;;14.30;;
52102;SDS011;38101;53.126;6.878;2022-09-13T01:10:47;19.77;;;16.15;;
52102;SDS011;38101;53.126;6.878;2022-09-13T01:13:17;18.73;;;14.93;;
52102;SDS011;38101;53.126;6.878;2022-09-13T01:15:48;19.33;;;14.67;;
52102;SDS011;38101;53.126;6.878;2022-09-13T01:18:14;18.27;;;14.68;;
52102;SDS011;38101;53.126;6.878;2022-09-13T01:37:07;19.38;;;14.35;;
52102;SDS011;38101;53.126;6.878;2022-09-13T01:45:36;15.80;;;12.45;;
52102;SDS011;38101;53.126;6.878;2022-09-13T01:54:08;15.65;;;12.57;;
52102;SDS011;38101;53.126;6.878;2022-09-13T01:56:48;15.98;;;13.50;;
52102;SDS011;38101;53.126;6.878;2022-09-13T02:02:02;14.60;;;11.77;;
52102;SDS011;38101;53.126;6.878;2022-09-13T02:04:40;15.10;;;11.52;;
52102;SDS011;38101;53.126;6.878;2022-09-13T02:07:18;14.65;;;11.80;;
52102;SDS011;38101;53.126;6.878;2022-09-13T02:09:49;15.13;;;11.43;;
52102;SDS011;38101;53.126;6.878;2022-09-13T02:12:22;12.05;;;10.52;;
52102;SDS011;38101;53.126;6.878;2022-09-13T02:14:52;11.95;;;10.40;;
52102;SDS011;38101;53.126;6.878;2022-09-13T02:17:23;13.00;;;10.73;;
52102;SDS011;38101;53.126;6.878;2022-09-13T02:19:56;14.23;;;11.05;;
52102;SDS011;38101;53.126;6.878;2022-09-13T02:22:26;12.20;;;10.70;;
52102;SDS011;38101;53.126;6.878;2022-09-13T02:24:57;15.57;;;10.82;;
52102;SDS011;38101;53.126;6.878;2022-09-13T02:27:37;13.32;;;10.80;;
52102;SDS011;38101;53.126;6.878;2022-09-13T02:30:08;14.35;;;11.35;;
52102;SDS011;38101;53.126;6.878;2022-09-13T02:35:10;13.60;;;11.18;;
52102;SDS011;38101;53.126;6.878;2022-09-13T02:37:40;13.70;;;10.98;;
52102;SDS011;38101;53.126;6.878;2022-09-13T02:40:11;13.57;;;11.30;;
52102;SDS011;38101;53.126;6.878;2022-09-13T02:42:53;14.45;;;11.50;;
52102;SDS011;38101;53.126;6.878;2022-09-13T02:45:28;14.77;;;11.02;;
52102;SDS011;38101;53.126;6.878;2022-09-13T02:48:05;13.85;;;11.23;;
52102;SDS011;38101;53.126;6.878;2022-09-13T02:59:17;13.30;;;11.27;;
52102;SDS011;38101;53.126;6.878;2022-09-13T03:01:48;13.90;;;11.60;;
52102;SDS011;38101;53.126;6.878;2022-09-13T03:04:16;13.65;;;11.52;;
52102;SDS011;38101;53.126;6.878;2022-09-13T03:06:42;15.23;;;12.07;;
52102;SDS011;38101;53.126;6.878;2022-09-13T03:09:08;14.70;;;12.23;;
52102;SDS011;38101;53.126;6.878;2022-09-13T03:20:09;16.05;;;11.88;;
52102;SDS011;38101;53.126;6.878;2022-09-13T03:23:00;14.57;;;12.35;;
52102;SDS011;38101;53.126;6.878;2022-09-13T03:31:38;15.50;;;13.15;;
52102;SDS011;38101;53.126;6.878;2022-09-13T03:37:04;17.48;;;14.45;;
52102;SDS011;38101;53.126;6.878;2022-09-13T03:42:25;19.33;;;14.85;;
52102;SDS011;38101;53.126;6.878;2022-09-13T03:45:08;19.95;;;15.82;;
52102;SDS011;38101;53.126;6.878;2022-09-13T03:47:37;19.70;;;15.82;;
52102;SDS011;38101;53.126;6.878;2022-09-13T03:50:06;22.65;;;16.00;;
52102;SDS011;38101;53.126;6.878;2022-09-13T03:52:34;19.50;;;15.68;;
52102;SDS011;38101;53.126;6.878;2022-09-13T03:55:00;21.70;;;13.60;;
52102;SDS011;38101;53.126;6.878;2022-09-13T03:57:26;19.77;;;14.90;;
52102;SDS011;38101;53.126;6.878;2022-09-13T03:59:53;16.40;;;12.18;;
52102;SDS011;38101;53.126;6.878;2022-09-13T04:02:21;12.20;;;10.07;;
52102;SDS011;38101;53.126;6.878;2022-09-13T04:04:49;10.85;;;9.00;;
52102;SDS011;38101;53.126;6.878;2022-09-13T04:07:16;10.27;;;8.18;;
52102;SDS011;38101;53.126;6.878;2022-09-13T04:09:45;10.43;;;7.97;;
52102;SDS011;38101;53.126;6.878;2022-09-13T04:12:12;8.90;;;7.10;;
52102;SDS011;38101;53.126;6.878;2022-09-13T04:14:38;9.45;;;7.55;;
52102;SDS011;38101;53.126;6.878;2022-09-13T04:17:04;9.75;;;7.40;;
52102;SDS011;38101;53.126;6.878;2022-09-13T04:19:30;10.52;;;7.90;;
52102;SDS011;38101;53.126;6.878;2022-09-13T04:21:57;10.10;;;8.15;;
52102;SDS011;38101;53.126;6.878;2022-09-13T04:24:26;10.10;;;7.68;;
52102;SDS011;38101;53.126;6.878;2022-09-13T04:26:53;11.85;;;9.43;;
52102;SDS011;38101;53.126;6.878;2022-09-13T04:29:21;13.30;;;10.30;;
52102;SDS011;38101;53.126;6.878;2022-09-13T04:31:48;14.70;;;10.95;;
52102;SDS011;38101;53.126;6.878;2022-09-13T04:34:15;11.57;;;8.95;;
52102;SDS011;38101;53.126;6.878;2022-09-13T04:36:46;11.77;;;8.63;;
52102;SDS011;38101;53.126;6.878;2022-09-13T04:39:12;9.52;;;7.78;;
52102;SDS011;38101;53.126;6.878;2022-09-13T04:41:40;10.50;;;7.18;;
52102;SDS011;38101;53.126;6.878;2022-09-13T04:44:08;9.63;;;6.93;;
52102;SDS011;38101;53.126;6.878;2022-09-13T04:46:34;10.15;;;7.18;;
52102;SDS011;38101;53.126;6.878;2022-09-13T04:49:00;9.48;;;7.20;;
52102;SDS011;38101;53.126;6.878;2022-09-13T04:51:25;9.35;;;6.85;;
52102;SDS011;38101;53.126;6.878;2022-09-13T04:53:52;8.80;;;6.95;;
52102;SDS011;38101;53.126;6.878;2022-09-13T04:56:19;10.13;;;7.63;;
52102;SDS011;38101;53.126;6.878;2022-09-13T04:58:47;8.93;;;7.40;;
52102;SDS011;38101;53.126;6.878;2022-09-13T05:01:14;9.88;;;7.35;;
52102;SDS011;38101;53.126;6.878;2022-09-13T05:03:40;12.07;;;8.45;;
52102;SDS011;38101;53.126;6.878;2022-09-13T05:06:12;10.07;;;7.50;;
52102;SDS011;38101;53.126;6.878;2022-09-13T05:08:42;8.75;;;7.43;;
52102;SDS011;38101;53.126;6.878;2022-09-13T05:11:08;8.45;;;6.35;;
52102;SDS011;38101;53.126;6.878;2022-09-13T05:13:34;7.13;;;5.25;;
52102;SDS011;38101;53.126;6.878;2022-09-13T05:16:03;6.93;;;5.05;;
52102;SDS011;38101;53.126;6.878;2022-09-13T05:18:31;8.18;;;4.65;;
52102;SDS011;38101;53.126;6.878;2022-09-13T05:20:58;7.15;;;4.35;;
52102;SDS011;38101;53.126;6.878;2022-09-13T05:23:25;6.57;;;4.32;;
52102;SDS011;38101;53.126;6.878;2022-09-13T05:25:53;7.47;;;3.97;;
52102;SDS011;38101;53.126;6.878;2022-09-13T05:28:20;6.68;;;4.20;;
52102;SDS011;38101;53.126;6.878;2022-09-13T05:30:55;8.00;;;4.32;;
52102;SDS011;38101;53.126;6.878;2022-09-13T05:33:45;8.10;;;4.25;;
52102;SDS011;38101;53.126;6.878;2022-09-13T05:36:13;6.68;;;4.03;;
52102;SDS011;38101;53.126;6.878;2022-09-13T05:38:38;7.07;;;3.92;;
52102;SDS011;38101;53.126;6.878;2022-09-13T05:41:04;5.60;;;4.00;;
52102;SDS011;38101;53.126;6.878;2022-09-13T05:43:31;6.05;;;3.60;;
52102;SDS011;38101;53.126;6.878;2022-09-13T05:48:32;4.30;;;3.53;;
52102;SDS011;38101;53.126;6.878;2022-09-13T05:51:06;7.65;;;3.28;;
52102;SDS011;38101;53.126;6.878;2022-09-13T05:53:39;5.80;;;2.88;;
52102;SDS011;38101;53.126;6.878;2022-09-13T05:56:07;5.63;;;3.00;;
52102;SDS011;38101;53.126;6.878;2022-09-13T05:58:37;6.15;;;2.67;;
52102;SDS011;38101;53.126;6.878;2022-09-13T06:01:04;5.45;;;2.55;;
52102;SDS011;38101;53.126;6.878;2022-09-13T06:03:30;6.75;;;2.42;;
52102;SDS011;38101;53.126;6.878;2022-09-13T06:05:56;5.70;;;2.67;;
52102;SDS011;38101;53.126;6.878;2022-09-13T06:08:23;4.72;;;2.38;;
52102;SDS011;38101;53.126;6.878;2022-09-13T06:10:57;7.65;;;2.90;;
52102;SDS011;38101;53.126;6.878;2022-09-13T06:13:24;5.80;;;2.80;;
52102;SDS011;38101;53.126;6.878;2022-09-13T06:15:51;4.45;;;2.70;;
52102;SDS011;38101;53.126;6.878;2022-09-13T06:18:18;5.43;;;2.67;;
52102;SDS011;38101;53.126;6.878;2022-09-13T06:20:44;5.65;;;2.47;;
52102;SDS011;38101;53.126;6.878;2022-09-13T06:23:11;6.78;;;2.80;;
52102;SDS011;38101;53.126;6.878;2022-09-13T06:25:37;7.55;;;2.80;;
52102;SDS011;38101;53.126;6.878;2022-09-13T06:28:03;7.10;;;3.13;;
52102;SDS011;38101;53.126;6.878;2022-09-13T06:30:29;4.35;;;2.58;;
52102;SDS011;38101;53.126;6.878;2022-09-13T06:32:55;5.57;;;2.75;;
52102;SDS011;38101;53.126;6.878;2022-09-13T06:35:21;6.10;;;2.75;;
52102;SDS011;38101;53.126;6.878;2022-09-13T06:37:46;7.07;;;2.67;;
52102;SDS011;38101;53.126;6.878;2022-09-13T06:40:13;6.88;;;2.70;;
52102;SDS011;38101;53.126;6.878;2022-09-13T06:42:39;6.00;;;2.55;;
52102;SDS011;38101;53.126;6.878;2022-09-13T06:45:05;6.95;;;2.38;;
52102;SDS011;38101;53.126;6.878;2022-09-13T06:47:31;7.68;;;2.60;;
52102;SDS011;38101;53.126;6.878;2022-09-13T06:49:57;4.90;;;2.42;;
52102;SDS011;38101;53.126;6.878;2022-09-13T06:52:23;5.50;;;2.50;;
52102;SDS011;38101;53.126;6.878;2022-09-13T06:54:49;6.75;;;2.45;;
52102;SDS011;38101;53.126;6.878;2022-09-13T06:57:15;6.15;;;2.35;;
52102;SDS011;38101;53.126;6.878;2022-09-13T06:59:41;6.65;;;2.42;;
52102;SDS011;38101;53.126;6.878;2022-09-13T07:02:08;7.38;;;2.80;;
52102;SDS011;38101;53.126;6.878;2022-09-13T07:04:34;7.13;;;2.80;;
52102;SDS011;38101;53.126;6.878;2022-09-13T07:07:00;6.10;;;2.90;;
52102;SDS011;38101;53.126;6.878;2022-09-13T07:09:26;7.78;;;3.00;;
52102;SDS011;38101;53.126;6.878;2022-09-13T07:11:53;9.48;;;2.75;;
52102;SDS011;38101;53.126;6.878;2022-09-13T07:14:21;5.90;;;2.95;;
52102;SDS011;38101;53.126;6.878;2022-09-13T07:16:48;6.45;;;2.88;;
52102;SDS011;38101;53.126;6.878;2022-09-13T07:19:20;5.32;;;2.75;;
52102;SDS011;38101;53.126;6.878;2022-09-13T07:21:48;6.10;;;2.80;;
52102;SDS011;38101;53.126;6.878;2022-09-13T07:24:15;7.28;;;2.90;;
52102;SDS011;38101;53.126;6.878;2022-09-13T07:26:41;6.95;;;2.80;;
52102;SDS011;38101;53.126;6.878;2022-09-13T07:29:07;6.32;;;2.80;;
52102;SDS011;38101;53.126;6.878;2022-09-13T07:31:37;8.23;;;2.72;;
52102;SDS011;38101;53.126;6.878;2022-09-13T07:34:10;8.80;;;3.75;;
52102;SDS011;38101;53.126;6.878;2022-09-13T07:36:41;7.65;;;2.50;;
52102;SDS011;38101;53.126;6.878;2022-09-13T07:39:07;7.45;;;2.90;;
52102;SDS011;38101;53.126;6.878;2022-09-13T07:41:33;6.15;;;2.60;;
52102;SDS011;38101;53.126;6.878;2022-09-13T07:44:01;6.32;;;2.70;;
52102;SDS011;38101;53.126;6.878;2022-09-13T07:46:29;6.03;;;2.28;;
52102;SDS011;38101;53.126;6.878;2022-09-13T07:49:00;7.57;;;2.58;;
52102;SDS011;38101;53.126;6.878;2022-09-13T07:51:28;6.15;;;2.25;;
52102;SDS011;38101;53.126;6.878;2022-09-13T07:53:55;7.35;;;2.20;;
52102;SDS011;38101;53.126;6.878;2022-09-13T07:56:32;7.65;;;2.25;;
52102;SDS011;38101;53.126;6.878;2022-09-13T07:59:00;4.85;;;2.40;;
52102;SDS011;38101;53.126;6.878;2022-09-13T08:01:36;4.82;;;1.90;;
52102;SDS011;38101;53.126;6.878;2022-09-13T08:04:07;3.80;;;2.10;;
52102;SDS011;38101;53.126;6.878;2022-09-13T08:06:36;7.00;;;2.03;;
52102;SDS011;38101;53.126;6.878;2022-09-13T08:09:04;7.03;;;2.15;;
52102;SDS011;38101;53.126;6.878;2022-09-13T08:11:32;3.47;;;2.15;;
52102;SDS011;38101;53.126;6.878;2022-09-13T08:13:59;5.05;;;1.63;;
52102;SDS011;38101;53.126;6.878;2022-09-13T08:16:26;5.75;;;2.00;;
52102;SDS011;38101;53.126;6.878;2022-09-13T08:18:54;6.63;;;2.00;;
52102;SDS011;38101;53.126;6.878;2022-09-13T08:21:22;3.28;;;1.85;;
52102;SDS011;38101;53.126;6.878;2022-09-13T08:23:48;4.65;;;2.00;;
52102;SDS011;38101;53.126;6.878;2022-09-13T08:26:15;6.07;;;1.77;;
52102;SDS011;38101;53.126;6.878;2022-09-13T08:28:41;4.90;;;1.80;;
52102;SDS011;38101;53.126;6.878;2022-09-13T08:31:08;5.05;;;2.05;;
52102;SDS011;38101;53.126;6.878;2022-09-13T08:33:41;6.32;;;1.95;;
52102;SDS011;38101;53.126;6.878;2022-09-13T08:36:12;7.60;;;2.10;;
52102;SDS011;38101;53.126;6.878;2022-09-13T08:38:49;4.38;;;1.83;;
52102;SDS011;38101;53.126;6.878;2022-09-13T08:46:32;5.55;;;1.88;;
52102;SDS011;38101;53.126;6.878;2022-09-13T08:49:04;5.40;;;1.70;;
52102;SDS011;38101;53.126;6.878;2022-09-13T08:54:15;5.85;;;1.85;;
52102;SDS011;38101;53.126;6.878;2022-09-13T08:56:59;8.13;;;2.08;;
52102;SDS011;38101;53.126;6.878;2022-09-13T08:59:38;6.30;;;1.60;;
52102;SDS011;38101;53.126;6.878;2022-09-13T09:05:15;4.10;;;1.60;;
52102;SDS011;38101;53.126;6.878;2022-09-13T09:07:47;4.97;;;1.58;;
52102;SDS011;38101;53.126;6.878;2022-09-13T09:10:19;6.30;;;1.50;;
52102;SDS011;38101;53.126;6.878;2022-09-13T09:12:56;5.85;;;1.88;;
52102;SDS011;38101;53.126;6.878;2022-09-13T09:15:30;5.28;;;1.80;;
52102;SDS011;38101;53.126;6.878;2022-09-13T09:20:48;5.60;;;1.70;;
52102;SDS011;38101;53.126;6.878;2022-09-13T09:23:22;5.43;;;1.95;;
52102;SDS011;38101;53.126;6.878;2022-09-13T09:25:59;4.72;;;1.73;;
52102;SDS011;38101;53.126;6.878;2022-09-13T09:28:49;7.15;;;1.80;;
52102;SDS011;38101;53.126;6.878;2022-09-13T09:36:55;3.42;;;1.40;;
52102;SDS011;38101;53.126;6.878;2022-09-13T09:39:30;2.90;;;1.52;;
52102;SDS011;38101;53.126;6.878;2022-09-13T09:41:57;6.57;;;1.85;;
52102;SDS011;38101;53.126;6.878;2022-09-13T09:44:26;8.32;;;2.03;;
52102;SDS011;38101;53.126;6.878;2022-09-13T09:49:54;5.47;;;1.80;;
52102;SDS011;38101;53.126;6.878;2022-09-13T09:52:43;4.05;;;1.67;;
52102;SDS011;38101;53.126;6.878;2022-09-13T09:57:53;4.10;;;1.50;;
52102;SDS011;38101;53.126;6.878;2022-09-13T10:00:25;4.22;;;1.40;;
52102;SDS011;38101;53.126;6.878;2022-09-13T10:02:55;3.80;;;1.38;;
52102;SDS011;38101;53.126;6.878;2022-09-13T10:05:26;4.45;;;1.67;;
52102;SDS011;38101;53.126;6.878;2022-09-13T10:07:59;5.18;;;1.45;;
52102;SDS011;38101;53.126;6.878;2022-09-13T10:10:37;4.82;;;1.70;;
52102;SDS011;38101;53.126;6.878;2022-09-13T10:13:11;5.00;;;1.55;;
52102;SDS011;38101;53.126;6.878;2022-09-13T10:15:50;5.72;;;1.83;;
52102;SDS011;38101;53.126;6.878;2022-09-13T10:18:22;4.10;;;1.60;;
52102;SDS011;38101;53.126;6.878;2022-09-13T10:21:00;3.65;;;1.52;;
52102;SDS011;38101;53.126;6.878;2022-09-13T10:23:30;3.10;;;1.20;;
52102;SDS011;38101;53.126;6.878;2022-09-13T10:28:41;7.57;;;1.73;;
52102;SDS011;38101;53.126;6.878;2022-09-13T10:31:15;3.60;;;1.40;;
52102;SDS011;38101;53.126;6.878;2022-09-13T10:36:15;5.32;;;1.48;;
52102;SDS011;38101;53.126;6.878;2022-09-13T10:38:51;6.85;;;1.70;;
52102;SDS011;38101;53.126;6.878;2022-09-13T10:41:25;8.02;;;1.88;;
52102;SDS011;38101;53.126;6.878;2022-09-13T10:43:56;5.15;;;1.67;;
52102;SDS011;38101;53.126;6.878;2022-09-13T10:46:23;5.60;;;1.90;;
52102;SDS011;38101;53.126;6.878;2022-09-13T10:48:50;7.10;;;1.75;;
52102;SDS011;38101;53.126;6.878;2022-09-13T10:54:18;4.40;;;1.70;;
52102;SDS011;38101;53.126;6.878;2022-09-13T10:56:41;4.07;;;1.55;;
52102;SDS011;38101;53.126;6.878;2022-09-13T10:59:24;4.75;;;1.63;;
52102;SDS011;38101;53.126;6.878;2022-09-13T11:04:44;7.55;;;2.10;;
52102;SDS011;38101;53.126;6.878;2022-09-13T11:10:18;6.30;;;1.60;;
52102;SDS011;38101;53.126;6.878;2022-09-13T11:18:34;6.47;;;2.05;;
52102;SDS011;38101;53.126;6.878;2022-09-13T11:29:15;8.60;;;1.83;;
52102;SDS011;38101;53.126;6.878;2022-09-13T11:32:03;4.07;;;1.35;;
52102;SDS011;38101;53.126;6.878;2022-09-13T11:45:34;3.85;;;1.50;;
52102;SDS011;38101;53.126;6.878;2022-09-13T11:48:28;3.58;;;1.35;;
52102;SDS011;38101;53.126;6.878;2022-09-13T11:53:44;5.05;;;1.50;;
52102;SDS011;38101;53.126;6.878;2022-09-13T11:56:33;4.15;;;1.38;;
52102;SDS011;38101;53.126;6.878;2022-09-13T12:02:01;4.13;;;1.42;;
52102;SDS011;38101;53.126;6.878;2022-09-13T12:04:44;3.97;;;1.30;;
52102;SDS011;38101;53.126;6.878;2022-09-13T12:07:25;5.90;;;1.40;;
52102;SDS011;38101;53.126;6.878;2022-09-13T12:10:44;5.82;;;1.35;;
52102;SDS011;38101;53.126;6.878;2022-09-13T12:12:54;4.43;;;1.60;;
52102;SDS011;38101;53.126;6.878;2022-09-13T12:18:19;7.38;;;1.92;;
52102;SDS011;38101;53.126;6.878;2022-09-13T12:20:53;5.50;;;1.40;;
52102;SDS011;38101;53.126;6.878;2022-09-13T12:23:35;5.50;;;1.60;;
52102;SDS011;38101;53.126;6.878;2022-09-13T12:26:13;3.60;;;1.60;;
52102;SDS011;38101;53.126;6.878;2022-09-13T12:28:45;3.22;;;1.33;;
52102;SDS011;38101;53.126;6.878;2022-09-13T12:31:23;6.13;;;1.60;;
52102;SDS011;38101;53.126;6.878;2022-09-13T12:33:51;6.47;;;1.70;;
52102;SDS011;38101;53.126;6.878;2022-09-13T12:50:15;2.67;;;1.40;;
52102;SDS011;38101;53.126;6.878;2022-09-13T13:01:22;6.95;;;1.92;;
52102;SDS011;38101;53.126;6.878;2022-09-13T13:03:54;7.25;;;1.77;;
52102;SDS011;38101;53.126;6.878;2022-09-13T13:08:56;5.90;;;2.20;;
52102;SDS011;38101;53.126;6.878;2022-09-13T13:11:27;6.50;;;1.88;;
52102;SDS011;38101;53.126;6.878;2022-09-13T13:14:05;7.07;;;1.88;;
52102;SDS011;38101;53.126;6.878;2022-09-13T13:16:35;5.05;;;1.90;;
52102;SDS011;38101;53.126;6.878;2022-09-13T13:21:55;4.82;;;1.90;;
52102;SDS011;38101;53.126;6.878;2022-09-13T13:24:44;6.75;;;1.70;;
52102;SDS011;38101;53.126;6.878;2022-09-13T13:27:28;7.05;;;1.80;;
52102;SDS011;38101;53.126;6.878;2022-09-13T13:35:36;4.60;;;1.60;;
52102;SDS011;38101;53.126;6.878;2022-09-13T13:40:40;7.25;;;2.05;;
52102;SDS011;38101;53.126;6.878;2022-09-13T13:45:58;7.43;;;1.98;;
52102;SDS011;38101;53.126;6.878;2022-09-13T13:48:37;7.05;;;2.42;;
52102;SDS011;38101;53.126;6.878;2022-09-13T13:51:15;8.07;;;2.30;;
52102;SDS011;38101;53.126;6.878;2022-09-13T13:53:47;4.50;;;1.65;;
52102;SDS011;38101;53.126;6.878;2022-09-13T13:56:20;6.78;;;1.88;;
52102;SDS011;38101;53.126;6.878;2022-09-13T13:59:06;3.42;;;1.55;;
52102;SDS011;38101;53.126;6.878;2022-09-13T14:01:38;3.53;;;1.55;;
52102;SDS011;38101;53.126;6.878;2022-09-13T14:07:04;5.85;;;1.60;;
52102;SDS011;38101;53.126;6.878;2022-09-13T14:09:57;5.57;;;1.92;;
52102;SDS011;38101;53.126;6.878;2022-09-13T14:21:20;6.55;;;1.70;;
52102;SDS011;38101;53.126;6.878;2022-09-13T14:23:49;4.22;;;1.70;;
52102;SDS011;38101;53.126;6.878;2022-09-13T14:26:15;6.25;;;1.98;;
52102;SDS011;38101;53.126;6.878;2022-09-13T14:28:41;3.75;;;1.75;;
52102;SDS011;38101;53.126;6.878;2022-09-13T14:31:07;5.47;;;1.73;;
52102;SDS011;38101;53.126;6.878;2022-09-13T14:33:40;2.40;;;1.38;;
52102;SDS011;38101;53.126;6.878;2022-09-13T14:36:13;6.55;;;1.70;;
52102;SDS011;38101;53.126;6.878;2022-09-13T14:38:46;6.68;;;1.90;;
52102;SDS011;38101;53.126;6.878;2022-09-13T14:41:15;5.80;;;1.50;;
52102;SDS011;38101;53.126;6.878;2022-09-13T14:43:44;5.63;;;1.60;;
52102;SDS011;38101;53.126;6.878;2022-09-13T14:46:13;5.05;;;1.52;;
52102;SDS011;38101;53.126;6.878;2022-09-13T14:51:27;7.07;;;1.83;;
52102;SDS011;38101;53.126;6.878;2022-09-13T14:54:33;6.88;;;1.80;;
52102;SDS011;38101;53.126;6.878;2022-09-13T14:56:58;6.22;;;1.70;;
52102;SDS011;38101;53.126;6.878;2022-09-13T15:01:55;5.07;;;1.75;;
52102;SDS011;38101;53.126;6.878;2022-09-13T15:04:22;3.55;;;1.30;;
52102;SDS011;38101;53.126;6.878;2022-09-13T15:07:04;5.32;;;1.85;;
52102;SDS011;38101;53.126;6.878;2022-09-13T15:09:42;5.50;;;1.70;;
52102;SDS011;38101;53.126;6.878;2022-09-13T15:12:17;5.57;;;1.60;;
52102;SDS011;38101;53.126;6.878;2022-09-13T15:17:49;5.23;;;1.47;;
52102;SDS011;38101;53.126;6.878;2022-09-13T15:23:21;5.05;;;1.70;;
52102;SDS011;38101;53.126;6.878;2022-09-13T15:26:04;4.97;;;1.65;;
52102;SDS011;38101;53.126;6.878;2022-09-13T15:31:09;7.43;;;1.92;;
52102;SDS011;38101;53.126;6.878;2022-09-13T15:39:25;5.32;;;1.42;;
52102;SDS011;38101;53.126;6.878;2022-09-13T15:41:52;4.85;;;1.23;;
52102;SDS011;38101;53.126;6.878;2022-09-13T15:44:22;5.38;;;1.63;;
52102;SDS011;38101;53.126;6.878;2022-09-13T15:49:19;4.38;;;1.52;;
52102;SDS011;38101;53.126;6.878;2022-09-13T15:51:54;5.53;;;1.67;;
52102;SDS011;38101;53.126;6.878;2022-09-13T15:54:38;4.43;;;1.60;;
52102;SDS011;38101;53.126;6.878;2022-09-13T15:57:06;5.68;;;1.60;;
52102;SDS011;38101;53.126;6.878;2022-09-13T15:59:34;4.50;;;1.20;;
52102;SDS011;38101;53.126;6.878;2022-09-13T16:02:00;4.10;;;1.55;;
52102;SDS011;38101;53.126;6.878;2022-09-13T16:04:36;3.53;;;1.10;;
52102;SDS011;38101;53.126;6.878;2022-09-13T16:07:02;5.63;;;1.83;;
52102;SDS011;38101;53.126;6.878;2022-09-13T16:09:28;3.60;;;1.63;;
52102;SDS011;38101;53.126;6.878;2022-09-13T16:11:53;4.35;;;1.50;;
52102;SDS011;38101;53.126;6.878;2022-09-13T16:14:19;4.78;;;1.63;;
52102;SDS011;38101;53.126;6.878;2022-09-13T16:16:46;2.58;;;1.40;;
52102;SDS011;38101;53.126;6.878;2022-09-13T16:19:17;4.35;;;1.55;;
52102;SDS011;38101;53.126;6.878;2022-09-13T16:21:44;6.65;;;1.70;;
52102;SDS011;38101;53.126;6.878;2022-09-13T16:24:11;5.95;;;1.50;;
52102;SDS011;38101;53.126;6.878;2022-09-13T16:26:37;7.43;;;1.60;;
52102;SDS011;38101;53.126;6.878;2022-09-13T16:29:03;4.68;;;1.70;;
52102;SDS011;38101;53.126;6.878;2022-09-13T16:31:29;6.07;;;1.52;;
52102;SDS011;38101;53.126;6.878;2022-09-13T16:33:55;2.78;;;1.25;;
52102;SDS011;38101;53.126;6.878;2022-09-13T16:36:21;4.25;;;1.40;;
52102;SDS011;38101;53.126;6.878;2022-09-13T16:38:47;5.35;;;1.30;;
52102;SDS011;38101;53.126;6.878;2022-09-13T16:41:12;2.28;;;1.40;;
52102;SDS011;38101;53.126;6.878;2022-09-13T16:43:38;3.40;;;1.67;;
52102;SDS011;38101;53.126;6.878;2022-09-13T16:46:04;4.47;;;1.40;;
52102;SDS011;38101;53.126;6.878;2022-09-13T16:48:31;4.85;;;1.52;;
52102;SDS011;38101;53.126;6.878;2022-09-13T16:51:09;4.70;;;1.50;;
52102;SDS011;38101;53.126;6.878;2022-09-13T16:53:37;7.50;;;2.03;;
52102;SDS011;38101;53.126;6.878;2022-09-13T16:56:06;4.22;;;1.48;;
52102;SDS011;38101;53.126;6.878;2022-09-13T16:58:42;4.28;;;1.30;;
52102;SDS011;38101;53.126;6.878;2022-09-13T17:01:11;3.38;;;1.25;;
52102;SDS011;38101;53.126;6.878;2022-09-13T17:03:39;3.10;;;1.42;;
52102;SDS011;38101;53.126;6.878;2022-09-13T17:06:09;4.72;;;1.70;;
52102;SDS011;38101;53.126;6.878;2022-09-13T17:08:37;6.78;;;2.05;;
52102;SDS011;38101;53.126;6.878;2022-09-13T17:11:05;6.70;;;1.90;;
52102;SDS011;38101;53.126;6.878;2022-09-13T17:13:33;4.32;;;1.80;;
52102;SDS011;38101;53.126;6.878;2022-09-13T17:15:59;4.50;;;1.60;;
52102;SDS011;38101;53.126;6.878;2022-09-13T17:18:25;4.78;;;1.63;;
52102;SDS011;38101;53.126;6.878;2022-09-13T17:20:51;5.07;;;1.75;;
52102;SDS011;38101;53.126;6.878;2022-09-13T17:23:17;6.25;;;1.65;;
52102;SDS011;38101;53.126;6.878;2022-09-13T17:25:44;6.15;;;2.05;;
52102;SDS011;38101;53.126;6.878;2022-09-13T17:28:12;3.72;;;1.50;;
52102;SDS011;38101;53.126;6.878;2022-09-13T17:30:39;5.60;;;1.73;;
52102;SDS011;38101;53.126;6.878;2022-09-13T17:33:05;4.40;;;1.45;;
52102;SDS011;38101;53.126;6.878;2022-09-13T17:35:31;6.82;;;1.73;;
52102;SDS011;38101;53.126;6.878;2022-09-13T17:38:00;4.82;;;1.67;;
52102;SDS011;38101;53.126;6.878;2022-09-13T17:40:27;4.72;;;1.60;;
52102;SDS011;38101;53.126;6.878;2022-09-13T17:42:54;5.10;;;1.60;;
52102;SDS011;38101;53.126;6.878;2022-09-13T17:45:20;5.93;;;1.90;;
52102;SDS011;38101;53.126;6.878;2022-09-13T17:47:47;4.07;;;1.60;;
52102;SDS011;38101;53.126;6.878;2022-09-13T17:50:15;6.38;;;1.50;;
52102;SDS011;38101;53.126;6.878;2022-09-13T17:52:41;4.32;;;1.45;;
52102;SDS011;38101;53.126;6.878;2022-09-13T17:55:07;4.32;;;1.52;;
52102;SDS011;38101;53.126;6.878;2022-09-13T17:57:33;5.18;;;1.50;;
52102;SDS011;38101;53.126;6.878;2022-09-13T17:59:59;4.07;;;1.42;;
52102;SDS011;38101;53.126;6.878;2022-09-13T18:02:25;4.40;;;1.42;;
52102;SDS011;38101;53.126;6.878;2022-09-13T18:04:52;3.03;;;1.27;;
52102;SDS011;38101;53.126;6.878;2022-09-13T18:07:18;7.05;;;1.30;;
52102;SDS011;38101;53.126;6.878;2022-09-13T18:09:44;3.80;;;1.15;;
52102;SDS011;38101;53.126;6.878;2022-09-13T18:12:10;6.75;;;1.90;;
52102;SDS011;38101;53.126;6.878;2022-09-13T18:14:36;5.00;;;1.48;;
52102;SDS011;38101;53.126;6.878;2022-09-13T18:17:02;3.67;;;1.55;;
52102;SDS011;38101;53.126;6.878;2022-09-13T18:19:34;3.38;;;1.48;;
52102;SDS011;38101;53.126;6.878;2022-09-13T18:22:00;4.47;;;1.52;;
52102;SDS011;38101;53.126;6.878;2022-09-13T18:24:26;3.22;;;1.20;;
52102;SDS011;38101;53.126;6.878;2022-09-13T18:26:52;4.35;;;1.48;;
52102;SDS011;38101;53.126;6.878;2022-09-13T18:29:17;3.55;;;1.52;;
52102;SDS011;38101;53.126;6.878;2022-09-13T18:31:43;5.40;;;1.85;;
52102;SDS011;38101;53.126;6.878;2022-09-13T18:34:10;5.13;;;1.33;;
52102;SDS011;38101;53.126;6.878;2022-09-13T18:36:37;3.00;;;1.50;;
52102;SDS011;38101;53.126;6.878;2022-09-13T18:39:04;3.50;;;1.42;;